Time;durP1;ratioP1;P1;durP2;ratioP2;P2;SDS_P1;SDS_P2;PMS_P1;PMS_P2;Temp;Humidity;BMP_temperature;BMP_pressure;BME280_temperature;BME280_humidity;BME280_pressure;Samples;Min_cycle;Max_cycle;Signal;HPM_P1;HPM_P2
2021/11/23 00:00:14;;;;;;;;;;;;;;;1.32;87.85;97330.78;5095438;28;19951;-76
2021/11/23 00:02:40;;;;;;;;;;;;;;;1.26;88.45;97331.34;5076846;28;20400;-76
2021/11/23 00:05:07;;;;;;;;;;;;;;;1.19;88.68;97334.47;5095199;28;19965;-75
2021/11/23 00:07:33;;;;;;;;;;;;;;;1.12;88.63;97335.19;5095212;28;19948;-76
2021/11/23 00:09:59;;;;;;;;;;;;;;;1.04;88.82;97341.00;5094853;28;19945;-76
2021/11/23 00:12:25;;;;;;;;;;;;;;;0.97;88.82;97338.16;5094985;28;20011;-75
2021/11/23 00:14:51;;;;;;;;;;;;;;;0.91;89.06;97349.03;5094784;28;19949;-75
2021/11/23 00:17:17;;;;;;;;;;;;;;;0.87;88.99;97349.44;5095099;28;19958;-76
2021/11/23 00:19:43;;;;;;;;;;;;;;;0.83;89.13;97350.66;5068987;28;19952;-75
2021/11/23 00:22:09;;;;;;;;;;;;;;;0.78;89.31;97351.06;5094686;28;19969;-75
2021/11/23 00:24:35;;;;;;;;;;;;;;;0.70;89.00;97346.56;5094984;28;19951;-74
2021/11/23 00:27:01;;;;;;;;;;;;;;;0.67;89.31;97351.97;5095078;28;19984;-75
2021/11/23 00:29:27;;;;;;;;;;;;;;;0.64;89.44;97354.03;5077110;28;19964;-75
2021/11/23 00:31:53;;;;;;;;;;;;;;;0.59;89.74;97355.22;5094789;28;20008;-75
2021/11/23 00:34:19;;;;;;;;;;;;;;;0.53;89.62;97350.59;5094524;28;20385;-75
2021/11/23 00:36:45;;;;;;;;;;;;;;;0.50;89.76;97350.03;5094537;28;19954;-75
2021/11/23 00:39:11;;;;;;;;;;;;;;;0.47;89.99;97356.28;5094327;28;20005;-76
2021/11/23 00:41:36;;;;;;;;;;;;;;;0.46;89.85;97359.00;5093991;28;19999;-75
2021/11/23 00:44:02;;;;;;;;;;;;;;;0.40;89.79;97361.16;5094173;28;19959;-75
2021/11/23 00:46:28;;;;;;;;;;;;;;;0.35;89.93;97360.72;5094784;28;20447;-75
2021/11/23 00:48:54;;;;;;;;;;;;;;;0.33;90.14;97359.22;5094294;28;19956;-74
2021/11/23 00:51:20;;;;;;;;;;;;;;;0.31;90.19;97364.50;5092937;28;19949;-75
2021/11/23 00:53:46;;;;;;;;;;;;;;;0.30;89.97;97364.66;5094263;28;20337;-76
2021/11/23 00:56:12;;;;;;;;;;;;;;;0.28;89.93;97361.41;5094978;28;19967;-75
2021/11/23 00:58:38;;;;;;;;;;;;;;;0.24;89.94;97360.84;5092625;28;19953;-75
2021/11/23 01:01:04;;;;;;;;;;;;;;;0.18;89.93;97351.03;5076031;28;19955;-76
2021/11/23 01:03:32;;;;;;;;;;;;;;;0.12;89.90;97360.09;5093850;28;19957;-76
2021/11/23 01:06:02;;;;;;;;;;;;;;;0.07;90.20;97353.72;5093792;28;20432;-75
2021/11/23 01:08:28;;;;;;;;;;;;;;;0.02;90.27;97361.00;5093947;28;19949;-75
2021/11/23 01:10:55;;;;;;;;;;;;;;;0.01;90.43;97369.69;5093710;28;19954;-77
2021/11/23 01:13:21;;;;;;;;;;;;;;;-0.02;90.55;97374.16;5094002;28;19962;-77
2021/11/23 01:15:47;;;;;;;;;;;;;;;-0.04;90.34;97370.09;5093674;28;20327;-76
2021/11/23 01:18:13;;;;;;;;;;;;;;;-0.07;90.36;97375.50;5075709;28;19960;-76
2021/11/23 01:20:39;;;;;;;;;;;;;;;-0.07;90.37;97367.75;5093820;28;19952;-76
2021/11/23 01:23:05;;;;;;;;;;;;;;;-0.08;90.32;97377.25;5075550;28;19996;-76
2021/11/23 01:25:31;;;;;;;;;;;;;;;-0.11;90.54;97372.34;5093792;28;19964;-76
2021/11/23 01:27:57;;;;;;;;;;;;;;;-0.11;90.55;97372.34;5093575;28;19993;-76
2021/11/23 01:30:23;;;;;;;;;;;;;;;-0.09;90.37;97382.53;5075581;28;19956;-77
2021/11/23 01:32:49;;;;;;;;;;;;;;;-0.10;89.90;97378.34;5093816;28;19971;-76
2021/11/23 01:35:16;;;;;;;;;;;;;;;-0.14;90.03;97377.75;5093687;28;20010;-76
2021/11/23 01:37:44;;;;;;;;;;;;;;;-0.17;90.21;97382.34;5068487;28;19956;-76
2021/11/23 01:40:11;;;;;;;;;;;;;;;-0.19;90.13;97381.66;5093599;28;19955;-76
2021/11/23 01:42:37;;;;;;;;;;;;;;;-0.20;90.36;97380.84;5092109;28;20405;-76
2021/11/23 01:45:03;;;;;;;;;;;;;;;-0.19;90.32;97379.09;5093423;28;19953;-76
2021/11/23 01:47:30;;;;;;;;;;;;;;;-0.19;90.05;97381.66;5093721;28;19961;-76
2021/11/23 01:49:56;;;;;;;;;;;;;;;-0.22;89.70;97380.97;5093430;28;20005;-76
2021/11/23 01:52:23;;;;;;;;;;;;;;;-0.26;90.11;97381.34;5093020;28;20415;-76
2021/11/23 01:54:49;;;;;;;;;;;;;;;-0.31;90.07;97384.31;5093216;28;19980;-76
2021/11/23 01:57:16;;;;;;;;;;;;;;;-0.35;90.29;97389.84;5095300;28;19959;-76
2021/11/23 01:59:42;;;;;;;;;;;;;;;-0.36;90.62;97388.22;5097276;28;19953;-76
2021/11/23 02:02:08;;;;;;;;;;;;;;;-0.41;90.56;97394.56;5097483;28;19967;-76
2021/11/23 02:04:34;;;;;;;;;;;;;;;-0.43;90.46;97393.88;5097419;28;20084;-76
2021/11/23 02:07:00;;;;;;;;;;;;;;;-0.47;90.66;97389.91;5097210;28;19951;-78
2021/11/23 02:09:26;;;;;;;;;;;;;;;-0.50;90.48;97391.94;5097342;28;20049;-76
2021/11/23 02:11:54;;;;;;;;;;;;;;;-0.55;90.58;97387.13;5097409;28;19956;-76
2021/11/23 02:14:20;;;;;;;;;;;;;;;-0.55;90.80;97379.41;5097131;28;20414;-76
2021/11/23 02:16:46;;;;;;;;;;;;;;;-0.56;90.58;97382.13;5097222;28;20060;-76
2021/11/23 02:19:12;;;;;;;;;;;;;;;-0.58;90.73;97382.22;5097096;28;19997;-76
2021/11/23 02:21:38;;;;;;;;;;;;;;;-0.60;90.82;97391.84;5096868;28;19997;-76
2021/11/23 02:24:04;;;;;;;;;;;;;;;-0.64;90.91;97385.31;5097336;28;20414;-75
2021/11/23 02:26:30;;;;;;;;;;;;;;;-0.66;90.90;97382.03;5097075;28;19965;-75
2021/11/23 02:28:56;;;;;;;;;;;;;;;-0.69;90.98;97382.31;5096966;28;20306;-75
2021/11/23 02:31:22;;;;;;;;;;;;;;;-0.71;91.08;97379.84;5078760;28;19954;-74
2021/11/23 02:33:49;;;;;;;;;;;;;;;-0.75;90.95;97381.03;5096526;28;19967;-74
2021/11/23 02:36:16;;;;;;;;;;;;;;;-0.76;91.05;97381.94;5096733;28;19953;-75
2021/11/23 02:38:42;;;;;;;;;;;;;;;-0.78;90.96;97380.44;5096665;28;19962;-75
2021/11/23 02:41:10;;;;;;;;;;;;;;;-0.83;91.15;97375.69;5096804;28;19958;-75
2021/11/23 02:43:37;;;;;;;;;;;;;;;-0.84;91.38;97374.03;5096511;28;19951;-75
2021/11/23 02:46:04;;;;;;;;;;;;;;;-0.84;91.29;97380.00;5096461;28;19981;-76
2021/11/23 02:48:30;;;;;;;;;;;;;;;-0.87;91.28;97369.13;5096582;28;19961;-75
2021/11/23 02:53:25;;;;;;;;;;;;;;;-0.89;91.48;97379.56;5096694;28;19973;-75
2021/11/23 02:55:50;;;;;;;;;;;;;;;-0.91;91.23;97378.84;5096252;28;20028;-75
2021/11/23 02:58:16;;;;;;;;;;;;;;;-0.92;91.21;97381.56;5078575;28;20133;-75
2021/11/23 03:00:44;;;;;;;;;;;;;;;-0.93;91.30;97385.06;5096266;28;19962;-75
2021/11/23 03:03:10;;;;;;;;;;;;;;;-0.96;91.36;97382.75;5096295;28;19966;-74
2021/11/23 03:05:36;;;;;;;;;;;;;;;-0.97;91.32;97381.91;5078213;28;20313;-74
2021/11/23 03:08:03;;;;;;;;;;;;;;;-1.00;91.45;97369.31;5094693;28;19962;-75
2021/11/23 03:10:30;;;;;;;;;;;;;;;-1.00;91.42;97386.50;5096244;28;19952;-75
2021/11/23 03:12:56;;;;;;;;;;;;;;;-1.03;91.44;97374.69;5095981;28;19968;-74
2021/11/23 03:15:23;;;;;;;;;;;;;;;-1.06;91.56;97386.03;5096036;28;19950;-76
2021/11/23 03:17:49;;;;;;;;;;;;;;;-1.08;91.60;97387.91;5095880;28;20332;-74
2021/11/23 03:20:17;;;;;;;;;;;;;;;-1.08;91.54;97385.34;5095885;28;19958;-75
2021/11/23 03:22:43;;;;;;;;;;;;;;;-1.09;91.53;97385.47;5096267;28;19968;-75
2021/11/23 03:25:10;;;;;;;;;;;;;;;-1.11;91.57;97383.03;5095790;28;19957;-76
2021/11/23 03:27:36;;;;;;;;;;;;;;;-1.11;91.53;97382.22;5077475;28;19948;-75
2021/11/23 03:30:05;;;;;;;;;;;;;;;-1.12;91.47;97381.38;5095770;28;19951;-75
2021/11/23 03:32:31;;;;;;;;;;;;;;;-1.12;91.72;97383.13;5095705;28;19974;-76
2021/11/23 03:34:57;;;;;;;;;;;;;;;-1.13;91.67;97381.53;5095510;28;20007;-75
2021/11/23 03:37:24;;;;;;;;;;;;;;;-1.14;91.54;97382.44;5078192;28;19996;-75
2021/11/23 03:39:52;;;;;;;;;;;;;;;-1.14;91.55;97388.41;5095555;28;19952;-76
2021/11/23 03:42:18;;;;;;;;;;;;;;;-1.14;91.47;97385.03;5095522;28;20294;-76
2021/11/23 03:44:45;;;;;;;;;;;;;;;-1.14;91.47;97392.75;5095513;28;20013;-75
2021/11/23 03:47:11;;;;;;;;;;;;;;;-1.16;91.41;97392.84;5095689;28;19956;-77
2021/11/23 03:49:37;;;;;;;;;;;;;;;-1.19;91.30;97394.88;5094996;28;19953;-76
2021/11/23 03:52:03;;;;;;;;;;;;;;;-1.20;91.37;97393.22;5095807;28;19956;-76
2021/11/23 03:54:29;;;;;;;;;;;;;;;-1.21;91.61;97387.25;5094892;28;19963;-75
2021/11/23 03:56:55;;;;;;;;;;;;;;;-1.23;91.48;97395.09;5095200;28;19989;-75
2021/11/23 03:59:21;;;;;;;;;;;;;;;-1.23;91.30;97395.09;5093939;28;19992;-75
2021/11/23 04:01:47;;;;;;;;;;;;;;;-1.23;91.29;97396.88;5094928;28;20425;-75
2021/11/23 04:04:13;;;;;;;;;;;;;;;-1.25;91.56;97393.59;5094940;28;19952;-75
2021/11/23 04:06:39;;;;;;;;;;;;;;;-1.26;91.56;97397.94;5095228;28;19956;-75
2021/11/23 04:09:05;;;;;;;;;;;;;;;-1.25;91.37;97391.00;5095071;28;19966;-76
2021/11/23 04:11:32;;;;;;;;;;;;;;;-1.26;91.34;97391.94;5094991;28;19952;-75
2021/11/23 04:13:57;;;;;;;;;;;;;;;-1.28;91.29;97388.66;5094804;28;19967;-75
2021/11/23 04:16:24;;;;;;;;;;;;;;;-1.27;91.36;97387.75;5094709;28;19949;-75
2021/11/23 04:18:50;;;;;;;;;;;;;;;-1.26;91.02;97384.22;5094859;28;19959;-75
2021/11/23 04:21:17;;;;;;;;;;;;;;;-1.26;91.30;97394.50;5094292;28;19947;-76
2021/11/23 04:23:43;;;;;;;;;;;;;;;-1.28;90.88;97394.66;5094357;28;20431;-76
2021/11/23 04:26:09;;;;;;;;;;;;;;;-1.30;91.04;97396.53;5094733;28;19960;-75
2021/11/23 04:28:35;;;;;;;;;;;;;;;-1.32;91.12;97395.81;5094471;28;19955;-74
2021/11/23 04:31:01;;;;;;;;;;;;;;;-1.33;90.83;97393.38;5094610;28;19955;-75
2021/11/23 04:33:27;;;;;;;;;;;;;;;-1.33;90.97;97389.03;5094390;28;19970;-76
2021/11/23 04:35:53;;;;;;;;;;;;;;;-1.33;90.60;97394.19;5094928;28;20325;-75
2021/11/23 04:38:19;;;;;;;;;;;;;;;-1.38;90.84;97391.16;5094253;28;19992;-75
2021/11/23 04:40:45;;;;;;;;;;;;;;;-1.41;90.91;97390.56;5094372;28;19951;-75
2021/11/23 04:43:11;;;;;;;;;;;;;;;-1.47;90.88;97392.69;5094284;28;19985;-75
2021/11/23 04:45:37;;;;;;;;;;;;;;;-1.52;91.10;97389.66;5094456;28;19979;-75
2021/11/23 04:48:04;;;;;;;;;;;;;;;-1.57;91.17;97386.63;5094188;28;20400;-75
2021/11/23 04:50:31;;;;;;;;;;;;;;;-1.58;91.57;97389.31;5094136;28;19953;-76
2021/11/23 04:52:57;;;;;;;;;;;;;;;-1.61;91.59;97381.84;5094202;28;19971;-75
2021/11/23 04:55:23;;;;;;;;;;;;;;;-1.61;91.49;97387.00;5093757;28;19959;-76
2021/11/23 04:57:49;;;;;;;;;;;;;;;-1.61;91.66;97395.50;5093932;28;19960;-75
2021/11/23 05:00:17;;;;;;;;;;;;;;;-1.61;91.68;97390.38;5093178;28;20467;-76
2021/11/23 05:02:44;;;;;;;;;;;;;;;-1.61;91.29;97394.69;5071924;28;19963;-75
2021/11/23 05:05:11;;;;;;;;;;;;;;;-1.61;91.44;97397.28;5093835;28;19956;-75
2021/11/23 05:07:37;;;;;;;;;;;;;;;-1.61;91.36;97395.50;5094104;28;19951;-75
2021/11/23 05:10:05;;;;;;;;;;;;;;;-1.60;91.50;97394.56;5093686;28;19954;-75
2021/11/23 05:12:31;;;;;;;;;;;;;;;-1.61;91.33;97400.66;5094237;28;19965;-75
2021/11/23 05:14:57;;;;;;;;;;;;;;;-1.63;91.16;97408.47;5092890;28;19948;-75
2021/11/23 05:17:23;;;;;;;;;;;;;;;-1.64;91.08;97408.59;5093924;28;19952;-75
2021/11/23 05:19:49;;;;;;;;;;;;;;;-1.69;90.95;97406.38;5093798;28;19943;-79
2021/11/23 05:22:15;;;;;;;;;;;;;;;-1.71;91.12;97407.44;5093723;28;19949;-76
2021/11/23 05:24:41;;;;;;;;;;;;;;;-1.73;90.95;97411.88;5093532;28;20043;-75
2021/11/23 05:27:07;;;;;;;;;;;;;;;-1.76;90.96;97412.94;5093536;28;19962;-75
2021/11/23 05:29:33;;;;;;;;;;;;;;;-1.77;91.46;97413.03;5093578;28;19952;-75
2021/11/23 05:31:59;;;;;;;;;;;;;;;-1.80;91.28;97411.53;5093244;28;20408;-75
2021/11/23 05:34:25;;;;;;;;;;;;;;;-1.84;91.28;97413.50;5093514;28;19957;-76
2021/11/23 05:36:51;;;;;;;;;;;;;;;-1.86;91.30;97407.66;5093728;28;19952;-74
2021/11/23 05:39:17;;;;;;;;;;;;;;;-1.85;91.59;97406.75;5093538;28;19960;-74
2021/11/23 05:41:44;;;;;;;;;;;;;;;-1.86;91.54;97419.72;5093417;28;19947;-75
2021/11/23 05:44:11;;;;;;;;;;;;;;;-1.89;91.43;97414.78;5093873;28;19957;-76
2021/11/23 05:46:38;;;;;;;;;;;;;;;-1.91;91.47;97420.06;5093470;28;20319;-75
2021/11/23 05:49:04;;;;;;;;;;;;;;;-1.91;91.50;97420.06;5093689;28;19951;-76
2021/11/23 05:51:30;;;;;;;;;;;;;;;-1.91;91.27;97425.19;5093457;28;19948;-76
2021/11/23 05:53:56;;;;;;;;;;;;;;;-1.92;91.47;97420.97;5075165;28;20072;-76
2021/11/23 05:56:22;;;;;;;;;;;;;;;-1.90;91.26;97421.69;5093555;28;20052;-77
2021/11/23 05:58:49;;;;;;;;;;;;;;;-1.92;91.31;97422.75;5092446;28;19988;-75
2021/11/23 06:01:16;;;;;;;;;;;;;;;-1.92;91.60;97420.16;5093337;28;19962;-76
2021/11/23 06:03:43;;;;;;;;;;;;;;;-1.93;91.38;97428.81;5093640;28;19953;-76
2021/11/23 06:06:10;;;;;;;;;;;;;;;-1.93;91.57;97433.94;5093204;28;19972;-76
2021/11/23 06:08:37;;;;;;;;;;;;;;;-1.94;91.24;97430.56;5093540;28;19954;-76
2021/11/23 06:11:03;;;;;;;;;;;;;;;-1.95;91.18;97431.50;5093421;28;19953;-76
2021/11/23 06:13:29;;;;;;;;;;;;;;;-1.94;91.20;97433.13;5093294;28;20329;-76
2021/11/23 06:15:55;;;;;;;;;;;;;;;-1.92;91.09;97438.16;5093158;28;20331;-76
2021/11/23 06:18:21;;;;;;;;;;;;;;;-1.89;90.70;97441.34;5093724;28;20044;-76
2021/11/23 06:20:48;;;;;;;;;;;;;;;-1.89;90.48;97435.34;5093163;28;19959;-76
2021/11/23 06:23:17;;;;;;;;;;;;;;;-1.86;90.70;97446.22;5093555;28;19953;-77
2021/11/23 06:25:44;;;;;;;;;;;;;;;-1.85;90.50;97444.47;5093019;28;19964;-77
2021/11/23 06:28:11;;;;;;;;;;;;;;;-1.88;90.30;97448.09;5093656;28;19948;-77
2021/11/23 06:30:37;;;;;;;;;;;;;;;-1.88;90.24;97447.28;5093153;28;19960;-76
2021/11/23 06:33:03;;;;;;;;;;;;;;;-1.88;90.38;97448.09;5093185;28;20326;-76
2021/11/23 06:35:30;;;;;;;;;;;;;;;-1.88;90.17;97452.44;5093088;28;19993;-77
2021/11/23 06:37:56;;;;;;;;;;;;;;;-1.89;90.31;97446.47;5092834;28;19960;-76
2021/11/23 06:40:22;;;;;;;;;;;;;;;-1.86;90.21;97455.69;5075046;28;19954;-76
2021/11/23 06:42:47;;;;;;;;;;;;;;;-1.87;90.26;97454.06;5076324;28;20326;-76
2021/11/23 06:45:13;;;;;;;;;;;;;;;-1.86;90.04;97461.66;5096994;28;19955;-76
2021/11/23 06:47:40;;;;;;;;;;;;;;;-1.84;89.64;97467.50;5096817;28;20334;-76
2021/11/23 06:50:06;;;;;;;;;;;;;;;-1.85;89.92;97471.03;5096326;28;19947;-75
2021/11/23 06:52:32;;;;;;;;;;;;;;;-1.86;89.52;97473.69;5096441;28;19964;-75
2021/11/23 06:54:58;;;;;;;;;;;;;;;-1.88;89.63;97481.53;5096102;28;19982;-75
2021/11/23 06:57:24;;;;;;;;;;;;;;;-1.89;89.72;97486.75;5095667;28;19956;-76
2021/11/23 06:59:50;;;;;;;;;;;;;;;-1.90;89.65;97485.16;5096275;28;20317;-75
2021/11/23 07:02:16;;;;;;;;;;;;;;;-1.92;89.98;97482.69;5096561;28;19997;-75
2021/11/23 07:04:42;;;;;;;;;;;;;;;-1.89;89.96;97484.19;5096421;28;19962;-75
2021/11/23 07:07:11;;;;;;;;;;;;;;;-1.84;89.83;97488.06;5096162;28;20003;-74
2021/11/23 07:09:37;;;;;;;;;;;;;;;-1.84;89.73;97492.41;5096277;28;19953;-75
2021/11/23 07:12:04;;;;;;;;;;;;;;;-1.81;89.63;97504.22;5096345;28;19954;-75
2021/11/23 07:14:30;;;;;;;;;;;;;;;-1.83;89.62;97504.31;5095982;28;19968;-75
2021/11/23 07:16:55;;;;;;;;;;;;;;;-1.86;90.01;97501.97;5095932;28;19949;-76
2021/11/23 07:19:21;;;;;;;;;;;;;;;-1.87;89.88;97503.75;5096191;28;20321;-74
2021/11/23 07:21:47;;;;;;;;;;;;;;;-1.89;89.98;97507.34;5095877;28;19962;-75
2021/11/23 07:24:13;;;;;;;;;;;;;;;-1.88;90.35;97501.28;5095812;28;19963;-74
2021/11/23 07:26:39;;;;;;;;;;;;;;;-1.82;90.28;97505.97;5096095;28;20418;-74
2021/11/23 07:29:06;;;;;;;;;;;;;;;-1.75;90.09;97507.13;5095845;28;19987;-74
2021/11/23 07:31:32;;;;;;;;;;;;;;;-1.63;90.15;97511.38;5095738;28;19949;-74
2021/11/23 07:33:58;;;;;;;;;;;;;;;-1.51;89.77;97509.63;5095335;28;20031;-74
2021/11/23 07:36:24;;;;;;;;;;;;;;;-1.34;89.30;97513.50;5095920;28;19953;-74
2021/11/23 07:38:51;;;;;;;;;;;;;;;-1.26;88.53;97512.91;5095860;28;19961;-74
2021/11/23 07:41:17;;;;;;;;;;;;;;;-1.34;87.99;97515.25;5095481;28;20314;-73
2021/11/23 07:43:43;;;;;;;;;;;;;;;-1.41;88.56;97517.47;5095530;28;20045;-76
2021/11/23 07:46:09;;;;;;;;;;;;;;;-1.45;88.27;97521.19;5085901;28;19957;-76
2021/11/23 07:48:35;;;;;;;;;;;;;;;-1.52;88.36;97520.03;5094875;28;19957;-74
2021/11/23 07:51:02;;;;;;;;;;;;;;;-1.59;88.63;97519.69;5095213;28;19979;-74
2021/11/23 07:53:28;;;;;;;;;;;;;;;-1.61;88.89;97523.31;5095224;28;19984;-74
2021/11/23 07:55:53;;;;;;;;;;;;;;;-1.53;88.77;97520.97;5093389;28;20026;-74
2021/11/23 07:58:20;;;;;;;;;;;;;;;-1.51;88.53;97517.34;5095273;28;20045;-74
2021/11/23 08:00:46;;;;;;;;;;;;;;;-1.42;88.63;97526.13;5095224;28;19957;-75
2021/11/23 08:03:12;;;;;;;;;;;;;;;-1.39;88.52;97522.50;5095112;28;19958;-75
2021/11/23 08:05:38;;;;;;;;;;;;;;;-1.39;88.37;97520.72;5094902;28;19964;-75
2021/11/23 08:08:05;;;;;;;;;;;;;;;-1.41;88.24;97524.38;5094894;28;20305;-75
2021/11/23 08:10:32;;;;;;;;;;;;;;;-1.45;88.51;97532.31;5077098;28;19951;-75
2021/11/23 08:12:58;;;;;;;;;;;;;;;-1.45;88.76;97540.03;5094785;28;19960;-75
2021/11/23 08:15:24;;;;;;;;;;;;;;;-1.44;88.79;97539.09;5095103;28;19959;-76
2021/11/23 08:17:51;;;;;;;;;;;;;;;-1.37;88.92;97536.88;5094688;28;20500;-75
2021/11/23 08:20:17;;;;;;;;;;;;;;;-1.28;88.89;97538.78;5094889;28;19960;-75
2021/11/23 08:22:45;;;;;;;;;;;;;;;-1.15;88.53;97533.50;5094623;28;20021;-75
2021/11/23 08:25:11;;;;;;;;;;;;;;;-0.96;88.33;97538.06;5073126;28;19952;-75
2021/11/23 08:27:38;;;;;;;;;;;;;;;-0.73;88.09;97533.69;5093327;28;19955;-75
2021/11/23 08:30:05;;;;;;;;;;;;;;;-0.63;87.03;97532.03;5094689;28;19962;-75
2021/11/23 08:32:30;;;;;;;;;;;;;;;-0.50;87.40;97537.03;5095022;28;19972;-75
2021/11/23 08:34:56;;;;;;;;;;;;;;;-0.36;87.08;97545.41;5094532;28;20038;-75
2021/11/23 08:37:26;;;;;;;;;;;;;;;-0.38;86.30;97537.81;5094375;28;19974;-75
2021/11/23 08:39:53;;;;;;;;;;;;;;;-0.42;86.47;97550.13;5076280;28;19949;-75
2021/11/23 08:42:20;;;;;;;;;;;;;;;-0.49;86.32;97548.97;5094537;28;20316;-75
2021/11/23 08:44:47;;;;;;;;;;;;;;;-0.54;86.45;97543.38;5094329;28;20392;-75
2021/11/23 08:47:14;;;;;;;;;;;;;;;-0.47;87.18;97551.44;5094310;28;19950;-74
2021/11/23 08:49:40;;;;;;;;;;;;;;;-0.42;86.84;97555.28;5094226;28;20402;-75
2021/11/23 08:52:07;;;;;;;;;;;;;;;-0.35;86.71;97555.63;5094653;28;19952;-76
2021/11/23 08:54:33;;;;;;;;;;;;;;;-0.28;86.82;97555.94;5093939;28;19979;-75
2021/11/23 08:57:04;;;;;;;;;;;;;;;-0.24;87.10;97559.91;5094134;28;19953;-75
2021/11/23 08:59:33;;;;;;;;;;;;;;;-0.17;87.02;97557.66;5094185;28;19965;-75
2021/11/23 09:02:00;;;;;;;;;;;;;;;-0.10;87.00;97557.06;5094502;28;19949;-75
2021/11/23 09:04:26;;;;;;;;;;;;;;;-0.03;86.46;97554.78;5093911;28;20430;-75
2021/11/23 09:06:52;;;;;;;;;;;;;;;0.03;86.84;97553.50;5094063;28;19974;-74
2021/11/23 09:09:23;;;;;;;;;;;;;;;0.07;86.12;97555.69;5092766;28;19958;-74
2021/11/23 09:11:50;;;;;;;;;;;;;;;0.08;86.36;97553.91;5093913;28;19958;-74
2021/11/23 09:14:16;;;;;;;;;;;;;;;0.11;86.24;97551.13;5093897;28;19970;-74
2021/11/23 09:16:42;;;;;;;;;;;;;;;0.14;86.42;97556.81;5093670;28;19951;-74
2021/11/23 09:19:08;;;;;;;;;;;;;;;0.17;86.49;97553.19;5093914;28;19964;-73
2021/11/23 09:21:34;;;;;;;;;;;;;;;0.16;86.01;97552.34;5093677;28;20428;-73
2021/11/23 09:24:01;;;;;;;;;;;;;;;0.12;85.97;97558.69;5093470;28;19953;-73
2021/11/23 09:26:27;;;;;;;;;;;;;;;0.10;86.43;97560.59;5093535;28;19994;-73
2021/11/23 09:28:53;;;;;;;;;;;;;;;0.14;86.09;97561.97;5093754;28;19950;-73
2021/11/23 09:31:19;;;;;;;;;;;;;;;0.13;85.60;97552.63;5093483;28;19960;-73
2021/11/23 09:33:46;;;;;;;;;;;;;;;0.15;85.91;97555.06;5093517;28;19971;-73
2021/11/23 09:36:13;;;;;;;;;;;;;;;0.11;85.57;97561.44;5093822;28;19954;-73
2021/11/23 09:38:39;;;;;;;;;;;;;;;0.12;86.08;97566.44;5093669;28;19963;-74
2021/11/23 09:41:06;;;;;;;;;;;;;;;0.16;85.74;97567.03;5093721;28;19953;-75
2021/11/23 09:43:33;;;;;;;;;;;;;;;0.26;86.45;97570.50;5093411;28;19964;-74
2021/11/23 09:45:59;;;;;;;;;;;;;;;0.36;86.02;97568.81;5093422;28;19948;-74
2021/11/23 09:48:25;;;;;;;;;;;;;;;0.45;85.99;97572.38;5093731;28;19964;-74
2021/11/23 09:50:51;;;;;;;;;;;;;;;0.66;86.00;97569.78;5093385;28;19958;-73
2021/11/23 09:53:18;;;;;;;;;;;;;;;0.83;85.72;97570.16;5092819;28;19985;-74
2021/11/23 09:55:45;;;;;;;;;;;;;;;1.03;85.55;97577.03;5093517;28;19963;-74
2021/11/23 09:58:11;;;;;;;;;;;;;;;1.23;84.93;97567.56;5093197;28;19950;-74
2021/11/23 10:00:38;;;;;;;;;;;;;;;1.42;84.15;97567.63;5093577;28;19958;-74
2021/11/23 10:03:09;;;;;;;;;;;;;;;1.66;83.37;97565.63;5093800;28;19954;-74
2021/11/23 10:05:38;;;;;;;;;;;;;;;1.94;83.41;97558.88;5074594;28;19962;-74
2021/11/23 10:08:06;;;;;;;;;;;;;;;2.17;82.41;97562.81;5093349;28;19964;-74
2021/11/23 10:10:38;;;;;;;;;;;;;;;2.28;81.86;97551.47;5093847;28;19955;-74
2021/11/23 10:13:04;;;;;;;;;;;;;;;2.46;80.43;97548.16;5075357;28;20392;-74
2021/11/23 10:15:34;;;;;;;;;;;;;;;2.60;80.68;97556.34;5093469;28;20067;-76
2021/11/23 10:18:08;;;;;;;;;;;;;;;2.77;80.23;97548.78;5077305;28;20423;-74
2021/11/23 10:20:34;;;;;;;;;;;;;;;2.97;80.36;97552.94;5097186;28;20390;-74
2021/11/23 10:23:20;;;;;;;;;;;;;;;3.16;77.96;97543.47;5097041;28;19955;-74
2021/11/23 10:25:48;;;;;;;;;;;;;;;3.24;80.56;97549.53;5069514;28;19956;-74
2021/11/23 10:28:14;;;;;;;;;;;;;;;3.34;79.13;97546.91;5096927;28;19958;-74
2021/11/23 10:30:44;;;;;;;;;;;;;;;3.42;76.33;97539.22;5096772;28;19953;-74
2021/11/23 10:33:11;;;;;;;;;;;;;;;3.47;77.90;97535.38;5096776;28;20366;-74
2021/11/23 10:35:40;;;;;;;;;;;;;;;3.44;76.59;97536.47;5096802;28;19978;-74
2021/11/23 10:38:08;;;;;;;;;;;;;;;3.33;77.56;97532.31;5095532;28;19964;-74
2021/11/23 10:40:35;;;;;;;;;;;;;;;3.27;77.26;97537.25;5096870;28;19964;-74
2021/11/23 10:43:04;;;;;;;;;;;;;;;3.29;77.28;97536.16;5096866;28;20336;-74
2021/11/23 10:45:37;;;;;;;;;;;;;;;3.32;79.08;97550.59;5096730;28;19950;-74
2021/11/23 10:48:04;;;;;;;;;;;;;;;3.35;79.42;97542.53;5095847;28;19969;-74
2021/11/23 10:50:31;;;;;;;;;;;;;;;3.33;76.52;97529.72;5096684;28;19962;-74
2021/11/23 10:53:02;;;;;;;;;;;;;;;3.41;77.30;97526.41;5096607;28;19982;-74
2021/11/23 10:55:29;;;;;;;;;;;;;;;3.44;76.51;97521.75;5096382;28;20337;-74
2021/11/23 10:57:57;;;;;;;;;;;;;;;3.57;78.09;97517.97;5096528;28;19966;-74
2021/11/23 11:00:24;;;;;;;;;;;;;;;3.68;76.90;97503.97;5096409;28;19951;-74
2021/11/23 11:02:51;;;;;;;;;;;;;;;3.81;75.77;97497.44;5096344;28;19958;-74
2021/11/23 11:05:18;;;;;;;;;;;;;;;3.92;76.04;97501.59;5096270;28;19960;-74
2021/11/23 11:07:45;;;;;;;;;;;;;;;4.06;75.10;97495.06;5096323;28;19959;-74
2021/11/23 11:10:12;;;;;;;;;;;;;;;4.11;75.19;97494.59;5095038;28;19953;-74
2021/11/23 11:12:38;;;;;;;;;;;;;;;4.18;75.29;97488.66;5095461;28;19968;-74
2021/11/23 11:15:07;;;;;;;;;;;;;;;4.22;74.76;97487.38;5096102;28;19967;-74
2021/11/23 11:17:37;;;;;;;;;;;;;;;4.30;75.93;97493.59;5095960;28;19952;-74
2021/11/23 11:20:04;;;;;;;;;;;;;;;4.37;73.71;97481.66;5095997;28;20397;-74
2021/11/23 11:22:30;;;;;;;;;;;;;;;4.42;74.73;97489.78;5096284;28;19977;-73
2021/11/23 11:25:20;;;;;;;;;;;;;;;4.46;73.97;97485.91;5077730;28;19954;-74
2021/11/23 11:27:47;;;;;;;;;;;;;;;4.51;72.80;97480.25;5094982;28;19959;-74
2021/11/23 11:30:18;;;;;;;;;;;;;;;4.58;74.83;97487.28;5094758;28;19965;-74
2021/11/23 11:32:46;;;;;;;;;;;;;;;4.60;74.61;97493.13;5095641;28;19959;-74
2021/11/23 11:35:26;;;;;;;;;;;;;;;4.63;74.83;97484.22;5095995;28;19963;-74
2021/11/23 11:38:02;;;;;;;;;;;;;;;4.60;71.23;97458.53;5094727;28;19958;-74
2021/11/23 11:40:29;;;;;;;;;;;;;;;4.59;70.39;97455.13;5077963;28;19976;-74
2021/11/23 11:43:00;;;;;;;;;;;;;;;4.56;68.88;97449.44;5095771;28;19950;-75
2021/11/23 11:45:37;;;;;;;;;;;;;;;4.47;71.33;97466.75;5095705;28;19960;-74
2021/11/23 11:48:22;;;;;;;;;;;;;;;4.38;70.09;97452.91;5095436;28;19950;-75
2021/11/23 11:50:59;;;;;;;;;;;;;;;4.27;70.39;97455.75;5069951;28;20420;-74
2021/11/23 11:53:29;;;;;;;;;;;;;;;4.17;71.13;97466.25;5095467;28;19986;-74
2021/11/23 11:55:55;;;;;;;;;;;;;;;4.16;70.57;97446.44;5095888;28;19967;-74
2021/11/23 11:58:40;;;;;;;;;;;;;;;4.21;72.57;97471.94;5095384;28;19960;-74
2021/11/23 12:01:18;;;;;;;;;;;;;;;4.26;70.71;97449.78;5080183;28;19969;-74
2021/11/23 12:03:58;;;;;;;;;;;;;;;4.31;73.10;97469.28;5076668;28;19958;-74
2021/11/23 12:06:44;;;;;;;;;;;;;;;4.30;69.20;97442.47;5095195;28;19966;-74
2021/11/23 12:09:27;;;;;;;;;;;;;;;4.30;73.34;97467.63;5095031;28;20420;-74
2021/11/23 12:11:54;;;;;;;;;;;;;;;4.31;72.44;97456.28;5094312;28;19958;-74
2021/11/23 12:14:23;;;;;;;;;;;;;;;4.26;71.08;97446.34;5095309;28;19968;-74
2021/11/23 12:16:53;;;;;;;;;;;;;;;4.30;72.39;97462.44;5095171;28;19963;-74
2021/11/23 12:19:42;;;;;;;;;;;;;;;4.32;68.58;97430.13;5093677;28;20061;-74
2021/11/23 12:22:19;;;;;;;;;;;;;;;4.27;73.25;97471.34;5094655;28;19960;-75
2021/11/23 12:24:44;;;;;;;;;;;;;;;4.26;73.58;97478.34;5094891;28;19971;-74
2021/11/23 12:27:14;;;;;;;;;;;;;;;4.30;73.12;97471.03;5094961;28;19978;-74
2021/11/23 12:29:40;;;;;;;;;;;;;;;4.28;67.80;97421.03;5093962;28;19954;-74
2021/11/23 12:32:06;;;;;;;;;;;;;;;4.27;69.56;97435.81;5094399;28;19956;-74
2021/11/23 12:34:32;;;;;;;;;;;;;;;4.33;70.59;97438.78;5094571;28;19969;-74
2021/11/23 12:36:58;;;;;;;;;;;;;;;4.32;69.81;97443.13;5094381;28;19962;-74
2021/11/23 12:39:26;;;;;;;;;;;;;;;4.27;67.11;97422.00;5093646;28;19961;-74
2021/11/23 12:42:03;;;;;;;;;;;;;;;4.23;70.48;97442.25;5093979;28;19955;-74
2021/11/23 12:44:34;;;;;;;;;;;;;;;4.17;68.84;97444.66;5094369;28;19965;-74
2021/11/23 12:47:04;;;;;;;;;;;;;;;4.09;66.54;97403.88;5094774;28;19952;-75
2021/11/23 12:49:33;;;;;;;;;;;;;;;4.08;67.47;97412.66;5075570;28;19953;-75
2021/11/23 12:52:01;;;;;;;;;;;;;;;3.99;65.38;97391.03;5094544;28;19968;-75